ACA280 KMSP-CYWG
Flight info
| Callsign | ACA280 |
|---|---|
| Flight time | 1h 5m |
| Altitude | 38000 |
| Route | GEP DCT BIPKU NORAK5 |
| Aircraft | A21N/M-SDE2E3FGHIRWXY/LB1 |
Departure
| Time | 2026-05-07 05:03 |
|---|---|
| Airport | Minneapolis–Saint Paul International Airport / Wold–Chamberlain Field (KMSP) |
Arrival
| Time | 2026-05-07 06:09 |
|---|---|
| Airport | Winnipeg / James Armstrong Richardson International Airport (CYWG) |
| Time | Latitude | Longitude | Altitude | Speed | Heading |
|---|---|---|---|---|---|
| 2026-05-07 04:38 | 44.88396 | -93.21668 | 843 ft | 0 kts | 109° |
| 2026-05-07 04:49 | 44.88398 | -93.21674 | 843 ft | 3 kts | 109° |
| 2026-05-07 04:50 | 44.88404 | -93.21699 | 833 ft | 3 kts | 109° |
| 2026-05-07 04:50 | 44.88411 | -93.21723 | 836 ft | 3 kts | 109° |
| 2026-05-07 04:50 | 44.88417 | -93.21748 | 833 ft | 3 kts | 109° |
| 2026-05-07 04:50 | 44.88426 | -93.21770 | 834 ft | 3 kts | 155° |
| 2026-05-07 04:51 | 44.88436 | -93.21774 | 833 ft | 0 kts | 191° |
| 2026-05-07 04:54 | 44.88435 | -93.21775 | 844 ft | 0 kts | 195° |
| 2026-05-07 04:54 | 44.88433 | -93.21777 | 836 ft | 1 kts | 204° |
| 2026-05-07 04:54 | 44.88424 | -93.21785 | 843 ft | 3 kts | 216° |
| 2026-05-07 04:54 | 44.88397 | -93.21818 | 831 ft | 6 kts | 221° |
| 2026-05-07 04:55 | 44.88366 | -93.21857 | 837 ft | 6 kts | 221° |
| 2026-05-07 04:55 | 44.88334 | -93.21902 | 838 ft | 7 kts | 223° |
| 2026-05-07 04:55 | 44.88287 | -93.21936 | 833 ft | 8 kts | 172° |
| 2026-05-07 04:55 | 44.88247 | -93.21884 | 836 ft | 8 kts | 125° |
| 2026-05-07 04:56 | 44.88214 | -93.21807 | 834 ft | 10 kts | 120° |
| 2026-05-07 04:56 | 44.88172 | -93.21709 | 832 ft | 12 kts | 122° |
| 2026-05-07 04:56 | 44.88125 | -93.21608 | 833 ft | 12 kts | 122° |
| 2026-05-07 04:56 | 44.88079 | -93.21500 | 834 ft | 14 kts | 121° |
| 2026-05-07 04:57 | 44.88025 | -93.21382 | 835 ft | 14 kts | 123° |
| 2026-05-07 04:57 | 44.87974 | -93.21269 | 828 ft | 13 kts | 121° |
| 2026-05-07 04:57 | 44.87925 | -93.21159 | 833 ft | 14 kts | 122° |
| 2026-05-07 04:57 | 44.87877 | -93.21048 | 834 ft | 12 kts | 118° |
| 2026-05-07 04:58 | 44.87841 | -93.20948 | 832 ft | 11 kts | 120° |
| 2026-05-07 04:58 | 44.87796 | -93.20846 | 828 ft | 13 kts | 123° |
| 2026-05-07 04:58 | 44.87746 | -93.20733 | 833 ft | 14 kts | 121° |
| 2026-05-07 04:58 | 44.87696 | -93.20616 | 833 ft | 15 kts | 121° |
| 2026-05-07 04:59 | 44.87638 | -93.20483 | 828 ft | 17 kts | 122° |
| 2026-05-07 04:59 | 44.87577 | -93.20343 | 832 ft | 17 kts | 121° |
| 2026-05-07 04:59 | 44.87515 | -93.20199 | 830 ft | 18 kts | 120° |
| 2026-05-07 04:59 | 44.87442 | -93.20089 | 831 ft | 14 kts | 177° |
| 2026-05-07 05:00 | 44.87423 | -93.20090 | 833 ft | 0 kts | 191° |
| 2026-05-07 05:01 | 44.87424 | -93.20090 | 833 ft | 0 kts | 192° |
| 2026-05-07 05:01 | 44.87416 | -93.20094 | 835 ft | 4 kts | 201° |
| 2026-05-07 05:02 | 44.87380 | -93.20139 | 829 ft | 10 kts | 245° |
| 2026-05-07 05:02 | 44.87406 | -93.20250 | 829 ft | 15 kts | 304° |
| 2026-05-07 05:02 | 44.87559 | -93.20601 | 829 ft | 76 kts | 300° |
| 2026-05-07 05:02 | 44.87978 | -93.21524 | 828 ft | 148 kts | 301° |
| 2026-05-07 05:03 | 44.88584 | -93.22945 | 1069 ft | 184 kts | 302° |
| 2026-05-07 05:03 | 44.89331 | -93.24425 | 1795 ft | 178 kts | 310° |
| 2026-05-07 05:03 | 44.90015 | -93.25775 | 2705 ft | 166 kts | 302° |
| 2026-05-07 05:03 | 44.90650 | -93.27241 | 3110 ft | 186 kts | 301° |
| 2026-05-07 05:04 | 44.91356 | -93.28904 | 3366 ft | 209 kts | 300° |
| 2026-05-07 05:04 | 44.92150 | -93.30781 | 3571 ft | 237 kts | 300° |
| 2026-05-07 05:04 | 44.93018 | -93.32830 | 4161 ft | 247 kts | 300° |
| 2026-05-07 05:04 | 44.93902 | -93.34915 | 5054 ft | 247 kts | 300° |
| 2026-05-07 05:05 | 44.94783 | -93.36989 | 6004 ft | 246 kts | 300° |
| 2026-05-07 05:05 | 44.95663 | -93.39064 | 6673 ft | 246 kts | 300° |
| 2026-05-07 05:05 | 44.96542 | -93.41135 | 6952 ft | 246 kts | 300° |
| 2026-05-07 05:05 | 44.97422 | -93.43207 | 6986 ft | 246 kts | 300° |
| 2026-05-07 05:06 | 44.98304 | -93.45282 | 6987 ft | 247 kts | 300° |
| 2026-05-07 05:06 | 44.99235 | -93.47322 | 6986 ft | 248 kts | 307° |
| 2026-05-07 05:06 | 45.00479 | -93.49010 | 6982 ft | 250 kts | 323° |
| 2026-05-07 05:06 | 45.02077 | -93.50000 | 6982 ft | 256 kts | 345° |
| 2026-05-07 05:07 | 45.03875 | -93.49952 | 6982 ft | 266 kts | 10° |
| 2026-05-07 05:07 | 45.05567 | -93.48820 | 7056 ft | 275 kts | 28° |
| 2026-05-07 05:07 | 45.07097 | -93.47193 | 7608 ft | 283 kts | 35° |
| 2026-05-07 05:07 | 45.08571 | -93.45327 | 8537 ft | 286 kts | 38° |
| 2026-05-07 05:08 | 45.10019 | -93.43379 | 9454 ft | 289 kts | 38° |
| 2026-05-07 05:08 | 45.11499 | -93.41423 | 10224 ft | 294 kts | 33° |
| 2026-05-07 05:08 | 45.13241 | -93.39804 | 10574 ft | 307 kts | 19° |
| 2026-05-07 05:08 | 45.15323 | -93.38896 | 10882 ft | 321 kts | 3° |
| 2026-05-07 05:09 | 45.17591 | -93.38920 | 11301 ft | 331 kts | 347° |
| 2026-05-07 05:09 | 45.19822 | -93.39784 | 12004 ft | 335 kts | 337° |
| 2026-05-07 05:09 | 45.22021 | -93.40939 | 12813 ft | 340 kts | 336° |
| 2026-05-07 05:09 | 45.24249 | -93.42135 | 13606 ft | 345 kts | 336° |
| 2026-05-07 05:10 | 45.26516 | -93.43334 | 14322 ft | 350 kts | 336° |
| 2026-05-07 05:10 | 45.28820 | -93.44534 | 15015 ft | 355 kts | 336° |
| 2026-05-07 05:10 | 45.31151 | -93.45737 | 15709 ft | 358 kts | 336° |
| 2026-05-07 05:10 | 45.33508 | -93.46948 | 16377 ft | 362 kts | 337° |
| 2026-05-07 05:11 | 45.35894 | -93.48172 | 17021 ft | 367 kts | 337° |
| 2026-05-07 05:11 | 45.38306 | -93.49407 | 17671 ft | 370 kts | 337° |
| 2026-05-07 05:11 | 45.40741 | -93.50655 | 18324 ft | 374 kts | 337° |
| 2026-05-07 05:11 | 45.43204 | -93.51918 | 18875 ft | 378 kts | 337° |
| 2026-05-07 05:12 | 45.45693 | -93.53195 | 19436 ft | 382 kts | 337° |
| 2026-05-07 05:12 | 45.48205 | -93.54485 | 20001 ft | 385 kts | 337° |
| 2026-05-07 05:12 | 45.50739 | -93.55787 | 20564 ft | 389 kts | 337° |
| 2026-05-07 05:12 | 45.53293 | -93.57101 | 21121 ft | 392 kts | 337° |
| 2026-05-07 05:13 | 45.55874 | -93.58430 | 21635 ft | 396 kts | 337° |
| 2026-05-07 05:13 | 45.58476 | -93.59771 | 22145 ft | 399 kts | 337° |
| 2026-05-07 05:13 | 45.61099 | -93.61124 | 22670 ft | 402 kts | 337° |
| 2026-05-07 05:13 | 45.63743 | -93.62490 | 23148 ft | 406 kts | 337° |
| 2026-05-07 05:14 | 45.66408 | -93.63867 | 23613 ft | 409 kts | 337° |
| 2026-05-07 05:14 | 45.69091 | -93.65255 | 24009 ft | 412 kts | 337° |
| 2026-05-07 05:14 | 45.71791 | -93.66654 | 24440 ft | 414 kts | 338° |
| 2026-05-07 05:14 | 45.74507 | -93.68063 | 24826 ft | 416 kts | 338° |
| 2026-05-07 05:15 | 45.77239 | -93.69481 | 25202 ft | 419 kts | 338° |
| 2026-05-07 05:15 | 45.79984 | -93.70907 | 25573 ft | 421 kts | 338° |
| 2026-05-07 05:15 | 45.82746 | -93.72344 | 25939 ft | 423 kts | 338° |
| 2026-05-07 05:15 | 45.85522 | -93.73790 | 26282 ft | 426 kts | 338° |
| 2026-05-07 05:16 | 45.88313 | -93.75245 | 26625 ft | 428 kts | 338° |
| 2026-05-07 05:16 | 45.91119 | -93.76709 | 26966 ft | 430 kts | 338° |
| 2026-05-07 05:16 | 45.93942 | -93.78185 | 27289 ft | 433 kts | 338° |
| 2026-05-07 05:16 | 45.96777 | -93.79667 | 27607 ft | 435 kts | 338° |
| 2026-05-07 05:17 | 45.99592 | -93.81141 | 27915 ft | 437 kts | 338° |
| 2026-05-07 05:17 | 46.02447 | -93.82637 | 28314 ft | 437 kts | 338° |
| 2026-05-07 05:17 | 46.05298 | -93.84132 | 28769 ft | 435 kts | 338° |
| 2026-05-07 05:17 | 46.08140 | -93.85624 | 29188 ft | 434 kts | 338° |
| 2026-05-07 05:18 | 46.10977 | -93.87116 | 29598 ft | 434 kts | 338° |
| 2026-05-07 05:18 | 46.13816 | -93.88611 | 29968 ft | 434 kts | 338° |
| 2026-05-07 05:18 | 46.16650 | -93.90105 | 30298 ft | 434 kts | 338° |
| 2026-05-07 05:18 | 46.19480 | -93.91598 | 30613 ft | 433 kts | 338° |
| 2026-05-07 05:19 | 46.22305 | -93.93090 | 30912 ft | 432 kts | 338° |
| 2026-05-07 05:19 | 46.25129 | -93.94584 | 31192 ft | 432 kts | 338° |
| 2026-05-07 05:19 | 46.27949 | -93.96077 | 31455 ft | 432 kts | 338° |
| 2026-05-07 05:19 | 46.30773 | -93.97573 | 31727 ft | 432 kts | 338° |
| 2026-05-07 05:20 | 46.33596 | -93.99072 | 31989 ft | 432 kts | 338° |
| 2026-05-07 05:20 | 46.36419 | -94.00571 | 32240 ft | 432 kts | 338° |
| 2026-05-07 05:20 | 46.39243 | -94.02073 | 32504 ft | 432 kts | 338° |
| 2026-05-07 05:20 | 46.42059 | -94.03571 | 32796 ft | 431 kts | 338° |
| 2026-05-07 05:21 | 46.44876 | -94.05072 | 33035 ft | 431 kts | 338° |
| 2026-05-07 05:21 | 46.50509 | -94.08080 | 33488 ft | 432 kts | 338° |
| 2026-05-07 05:21 | 46.53327 | -94.09586 | 33711 ft | 431 kts | 338° |
| 2026-05-07 05:22 | 46.56143 | -94.11094 | 33926 ft | 431 kts | 338° |
| 2026-05-07 05:22 | 46.58960 | -94.12603 | 34111 ft | 431 kts | 338° |
| 2026-05-07 05:22 | 46.61775 | -94.14113 | 34254 ft | 432 kts | 338° |
| 2026-05-07 05:22 | 46.64598 | -94.15629 | 34399 ft | 432 kts | 338° |
| 2026-05-07 05:23 | 46.67414 | -94.17143 | 34541 ft | 432 kts | 338° |
| 2026-05-07 05:23 | 46.70235 | -94.18662 | 34694 ft | 432 kts | 338° |
| 2026-05-07 05:23 | 46.73056 | -94.20182 | 34839 ft | 432 kts | 338° |
| 2026-05-07 05:23 | 46.75879 | -94.21705 | 34982 ft | 432 kts | 338° |
| 2026-05-07 05:24 | 46.78700 | -94.23228 | 35123 ft | 433 kts | 338° |
| 2026-05-07 05:24 | 46.81521 | -94.24753 | 35261 ft | 433 kts | 338° |
| 2026-05-07 05:24 | 46.84345 | -94.26282 | 35403 ft | 433 kts | 338° |
| 2026-05-07 05:24 | 46.87169 | -94.27812 | 35532 ft | 433 kts | 338° |
| 2026-05-07 05:25 | 46.89991 | -94.29343 | 35664 ft | 433 kts | 338° |
| 2026-05-07 05:25 | 46.92816 | -94.30877 | 35785 ft | 433 kts | 338° |
| 2026-05-07 05:25 | 46.95640 | -94.32413 | 35900 ft | 433 kts | 338° |
| 2026-05-07 05:25 | 46.98466 | -94.33951 | 36017 ft | 433 kts | 338° |
| 2026-05-07 05:26 | 47.00334 | -94.34969 | 36088 ft | 433 kts | 338° |
| 2026-05-07 05:26 | 47.03160 | -94.36510 | 36196 ft | 433 kts | 338° |
| 2026-05-07 05:26 | 47.05988 | -94.38054 | 36284 ft | 434 kts | 338° |
| 2026-05-07 05:27 | 47.11659 | -94.41156 | 36484 ft | 436 kts | 338° |
| 2026-05-07 05:27 | 47.17348 | -94.44274 | 36619 ft | 437 kts | 338° |
| 2026-05-07 05:28 | 47.23056 | -94.47410 | 36764 ft | 438 kts | 338° |
| 2026-05-07 05:28 | 47.28775 | -94.50560 | 36888 ft | 440 kts | 338° |
| 2026-05-07 05:29 | 47.34511 | -94.53725 | 37034 ft | 440 kts | 338° |
| 2026-05-07 05:29 | 47.40255 | -94.56903 | 37151 ft | 442 kts | 338° |
| 2026-05-07 05:30 | 47.46010 | -94.60094 | 37299 ft | 441 kts | 338° |
| 2026-05-07 05:30 | 47.51766 | -94.63293 | 37399 ft | 443 kts | 338° |
| 2026-05-07 05:31 | 47.57541 | -94.66511 | 37488 ft | 444 kts | 338° |
| 2026-05-07 05:31 | 47.63327 | -94.69742 | 37560 ft | 445 kts | 338° |
| 2026-05-07 05:32 | 47.69121 | -94.72986 | 37647 ft | 446 kts | 338° |
| 2026-05-07 05:32 | 47.74886 | -94.76221 | 37773 ft | 446 kts | 338° |
| 2026-05-07 05:33 | 47.80696 | -94.79489 | 37848 ft | 447 kts | 338° |
| 2026-05-07 05:33 | 47.86518 | -94.82771 | 37915 ft | 448 kts | 338° |
| 2026-05-07 05:34 | 47.92348 | -94.86066 | 38002 ft | 448 kts | 338° |
| 2026-05-07 05:34 | 47.98186 | -94.89374 | 38012 ft | 449 kts | 338° |
| 2026-05-07 05:35 | 48.04023 | -94.92689 | 38013 ft | 449 kts | 338° |
| 2026-05-07 05:35 | 48.09854 | -94.96008 | 38012 ft | 448 kts | 338° |
| 2026-05-07 05:36 | 48.15686 | -94.99336 | 38011 ft | 448 kts | 338° |
| 2026-05-07 05:36 | 48.21511 | -95.02668 | 38014 ft | 448 kts | 338° |
| 2026-05-07 05:37 | 48.27333 | -95.06007 | 38018 ft | 448 kts | 338° |
| 2026-05-07 05:37 | 48.33155 | -95.09354 | 38029 ft | 448 kts | 338° |
| 2026-05-07 05:38 | 48.38972 | -95.12707 | 38015 ft | 448 kts | 338° |
| 2026-05-07 05:38 | 48.44786 | -95.16065 | 38015 ft | 447 kts | 338° |
| 2026-05-07 05:39 | 48.50599 | -95.19431 | 38004 ft | 447 kts | 338° |
| 2026-05-07 05:39 | 48.56401 | -95.22799 | 38015 ft | 446 kts | 338° |
| 2026-05-07 05:40 | 48.62191 | -95.26169 | 38009 ft | 446 kts | 338° |
| 2026-05-07 05:40 | 48.67978 | -95.29546 | 37999 ft | 446 kts | 338° |
| 2026-05-07 05:41 | 48.73761 | -95.32928 | 37991 ft | 446 kts | 338° |
| 2026-05-07 05:41 | 48.79545 | -95.36320 | 37980 ft | 446 kts | 338° |
| 2026-05-07 05:42 | 48.85327 | -95.39718 | 37970 ft | 445 kts | 338° |
| 2026-05-07 05:42 | 48.91068 | -95.43100 | 37971 ft | 446 kts | 338° |
| 2026-05-07 05:43 | 48.96846 | -95.46514 | 37977 ft | 446 kts | 338° |
| 2026-05-07 05:43 | 49.02623 | -95.49933 | 37924 ft | 444 kts | 338° |
| 2026-05-07 05:43 | 49.05488 | -95.51636 | 37376 ft | 441 kts | 337° |
| 2026-05-07 05:44 | 49.08228 | -95.53720 | 36590 ft | 441 kts | 325° |
| 2026-05-07 05:44 | 49.10612 | -95.56670 | 35851 ft | 442 kts | 317° |
| 2026-05-07 05:44 | 49.12837 | -95.59913 | 35174 ft | 442 kts | 316° |
| 2026-05-07 05:44 | 49.15033 | -95.63206 | 34517 ft | 442 kts | 316° |
| 2026-05-07 05:45 | 49.17212 | -95.66479 | 33682 ft | 437 kts | 316° |
| 2026-05-07 05:45 | 49.19377 | -95.69726 | 32413 ft | 436 kts | 316° |
| 2026-05-07 05:45 | 49.21545 | -95.72975 | 31069 ft | 437 kts | 315° |
| 2026-05-07 05:45 | 49.23726 | -95.76242 | 29967 ft | 438 kts | 315° |
| 2026-05-07 05:46 | 49.25865 | -95.79452 | 29147 ft | 423 kts | 315° |
| 2026-05-07 05:46 | 49.27949 | -95.82581 | 27876 ft | 419 kts | 315° |
| 2026-05-07 05:46 | 49.30020 | -95.85690 | 26743 ft | 413 kts | 315° |
| 2026-05-07 05:46 | 49.32054 | -95.88748 | 25657 ft | 407 kts | 315° |
| 2026-05-07 05:47 | 49.34060 | -95.91767 | 24646 ft | 401 kts | 314° |
| 2026-05-07 05:47 | 49.36031 | -95.94738 | 23667 ft | 395 kts | 314° |
| 2026-05-07 05:47 | 49.37974 | -95.97669 | 22711 ft | 386 kts | 314° |
| 2026-05-07 05:47 | 49.39863 | -96.00523 | 21663 ft | 378 kts | 314° |
| 2026-05-07 05:48 | 49.41724 | -96.03341 | 20597 ft | 373 kts | 315° |
| 2026-05-07 05:48 | 49.43556 | -96.06116 | 19573 ft | 367 kts | 315° |
| 2026-05-07 05:48 | 49.45350 | -96.08837 | 18771 ft | 357 kts | 315° |
| 2026-05-07 05:48 | 49.47080 | -96.11463 | 18186 ft | 342 kts | 315° |
| 2026-05-07 05:49 | 49.48731 | -96.13971 | 17668 ft | 326 kts | 316° |
| 2026-05-07 05:49 | 49.50307 | -96.16369 | 17182 ft | 312 kts | 316° |
| 2026-05-07 05:49 | 49.51823 | -96.18677 | 16701 ft | 303 kts | 316° |
| 2026-05-07 05:49 | 49.53322 | -96.20960 | 16262 ft | 305 kts | 316° |
| 2026-05-07 05:50 | 49.54831 | -96.23261 | 15804 ft | 306 kts | 316° |
| 2026-05-07 05:50 | 49.56339 | -96.25561 | 15353 ft | 304 kts | 316° |
| 2026-05-07 05:50 | 49.57836 | -96.27848 | 14898 ft | 302 kts | 316° |
| 2026-05-07 05:50 | 49.59332 | -96.30135 | 14191 ft | 307 kts | 316° |
| 2026-05-07 05:51 | 49.60873 | -96.32492 | 13203 ft | 318 kts | 316° |
| 2026-05-07 05:51 | 49.62468 | -96.34932 | 12125 ft | 328 kts | 315° |
| 2026-05-07 05:51 | 49.64114 | -96.37454 | 10998 ft | 339 kts | 315° |
| 2026-05-07 05:51 | 49.65808 | -96.40053 | 9933 ft | 347 kts | 315° |
| 2026-05-07 05:52 | 49.67477 | -96.42618 | 9611 ft | 324 kts | 315° |
| 2026-05-07 05:52 | 49.68990 | -96.44946 | 9492 ft | 291 kts | 315° |
| 2026-05-07 05:52 | 49.70357 | -96.47051 | 9246 ft | 267 kts | 315° |
| 2026-05-07 05:52 | 49.71641 | -96.49030 | 8797 ft | 255 kts | 315° |
| 2026-05-07 05:53 | 49.72816 | -96.51050 | 8475 ft | 252 kts | 306° |
| 2026-05-07 05:53 | 49.73602 | -96.53414 | 8205 ft | 252 kts | 289° |
| 2026-05-07 05:53 | 49.73867 | -96.56097 | 8042 ft | 255 kts | 276° |
| 2026-05-07 05:53 | 49.73892 | -96.58878 | 8028 ft | 256 kts | 273° |
| 2026-05-07 05:54 | 49.73877 | -96.61598 | 8026 ft | 256 kts | 273° |
| 2026-05-07 05:54 | 49.73860 | -96.64383 | 8025 ft | 256 kts | 273° |
| 2026-05-07 05:54 | 49.73847 | -96.67132 | 8026 ft | 255 kts | 273° |
| 2026-05-07 05:54 | 49.73838 | -96.69838 | 8023 ft | 255 kts | 273° |
| 2026-05-07 05:55 | 49.73919 | -96.72551 | 8025 ft | 250 kts | 282° |
| 2026-05-07 05:55 | 49.74412 | -96.75105 | 8021 ft | 248 kts | 298° |
| 2026-05-07 05:55 | 49.75287 | -96.77400 | 8021 ft | 248 kts | 305° |
| 2026-05-07 05:55 | 49.76280 | -96.79587 | 8008 ft | 249 kts | 306° |
| 2026-05-07 05:56 | 49.77309 | -96.81762 | 8026 ft | 251 kts | 307° |
| 2026-05-07 05:56 | 49.78345 | -96.83928 | 8015 ft | 250 kts | 307° |
| 2026-05-07 05:56 | 49.79382 | -96.86090 | 8014 ft | 250 kts | 307° |
| 2026-05-07 05:56 | 49.80419 | -96.88249 | 8012 ft | 250 kts | 307° |
| 2026-05-07 05:57 | 49.81456 | -96.90407 | 8010 ft | 250 kts | 307° |
| 2026-05-07 05:57 | 49.82492 | -96.92568 | 8008 ft | 250 kts | 307° |
| 2026-05-07 05:57 | 49.83526 | -96.94727 | 8006 ft | 250 kts | 307° |
| 2026-05-07 05:57 | 49.84562 | -96.96892 | 8005 ft | 250 kts | 307° |
| 2026-05-07 05:58 | 49.85596 | -96.99055 | 8003 ft | 250 kts | 307° |
| 2026-05-07 05:58 | 49.86632 | -97.01208 | 7775 ft | 248 kts | 309° |
| 2026-05-07 05:58 | 49.87795 | -97.03153 | 7407 ft | 244 kts | 316° |
| 2026-05-07 05:58 | 49.89040 | -97.04917 | 7076 ft | 241 kts | 318° |
| 2026-05-07 05:59 | 49.90284 | -97.06626 | 6762 ft | 237 kts | 318° |
| 2026-05-07 05:59 | 49.91513 | -97.08310 | 6474 ft | 233 kts | 318° |
| 2026-05-07 05:59 | 49.92686 | -97.09916 | 6423 ft | 217 kts | 318° |
| 2026-05-07 05:59 | 49.93773 | -97.11402 | 6384 ft | 199 kts | 318° |
| 2026-05-07 06:00 | 49.94791 | -97.12793 | 6286 ft | 193 kts | 318° |
| 2026-05-07 06:00 | 49.95758 | -97.14115 | 6195 ft | 177 kts | 319° |
| 2026-05-07 06:00 | 49.96678 | -97.15374 | 5970 ft | 181 kts | 319° |
| 2026-05-07 06:00 | 49.97674 | -97.16738 | 5697 ft | 197 kts | 319° |
| 2026-05-07 06:01 | 49.98709 | -97.18155 | 5421 ft | 200 kts | 319° |
| 2026-05-07 06:01 | 49.99750 | -97.19581 | 5249 ft | 199 kts | 319° |
| 2026-05-07 06:01 | 50.00787 | -97.21004 | 5077 ft | 198 kts | 319° |
| 2026-05-07 06:01 | 50.01822 | -97.22423 | 4922 ft | 199 kts | 319° |
| 2026-05-07 06:02 | 50.02857 | -97.23845 | 4795 ft | 199 kts | 319° |
| 2026-05-07 06:02 | 50.03891 | -97.25264 | 4650 ft | 198 kts | 319° |
| 2026-05-07 06:02 | 50.04929 | -97.26689 | 4514 ft | 200 kts | 319° |
| 2026-05-07 06:02 | 50.05951 | -97.28125 | 4370 ft | 201 kts | 315° |
| 2026-05-07 06:03 | 50.06738 | -97.29918 | 4230 ft | 201 kts | 293° |
| 2026-05-07 06:03 | 50.06889 | -97.31988 | 4069 ft | 189 kts | 264° |
| 2026-05-07 06:03 | 50.06404 | -97.33811 | 3912 ft | 178 kts | 239° |
| 2026-05-07 06:03 | 50.05653 | -97.35253 | 3841 ft | 168 kts | 233° |
| 2026-05-07 06:04 | 50.04873 | -97.36598 | 3741 ft | 168 kts | 232° |
| 2026-05-07 06:04 | 50.04092 | -97.37912 | 3628 ft | 160 kts | 229° |
| 2026-05-07 06:04 | 50.03228 | -97.38889 | 3423 ft | 151 kts | 208° |
| 2026-05-07 06:04 | 50.02220 | -97.39173 | 3137 ft | 150 kts | 169° |
| 2026-05-07 06:05 | 50.01257 | -97.38598 | 3021 ft | 148 kts | 156° |
| 2026-05-07 06:05 | 50.00370 | -97.37788 | 3020 ft | 148 kts | 145° |
| 2026-05-07 06:05 | 49.99576 | -97.36763 | 3024 ft | 148 kts | 139° |
| 2026-05-07 06:05 | 49.98798 | -97.35707 | 2951 ft | 149 kts | 140° |
| 2026-05-07 06:06 | 49.98032 | -97.34642 | 2748 ft | 147 kts | 140° |
| 2026-05-07 06:06 | 49.97273 | -97.33586 | 2538 ft | 146 kts | 140° |
| 2026-05-07 06:06 | 49.96522 | -97.32542 | 2334 ft | 144 kts | 141° |
| 2026-05-07 06:06 | 49.95780 | -97.31510 | 2125 ft | 142 kts | 140° |
| 2026-05-07 06:07 | 49.95049 | -97.30491 | 1926 ft | 140 kts | 141° |
| 2026-05-07 06:07 | 49.94325 | -97.29483 | 1722 ft | 139 kts | 140° |
| 2026-05-07 06:07 | 49.93610 | -97.28488 | 1504 ft | 137 kts | 138° |
| 2026-05-07 06:07 | 49.92908 | -97.27509 | 1295 ft | 135 kts | 138° |
| 2026-05-07 06:08 | 49.92212 | -97.26540 | 1097 ft | 134 kts | 137° |
| 2026-05-07 06:08 | 49.91524 | -97.25582 | 898 ft | 132 kts | 136° |
| 2026-05-07 06:08 | 49.90867 | -97.24657 | 788 ft | 118 kts | 136° |
| 2026-05-07 06:08 | 49.90385 | -97.23975 | 785 ft | 68 kts | 137° |
| 2026-05-07 06:09 | 49.90118 | -97.23611 | 789 ft | 42 kts | 139° |
| 2026-05-07 06:09 | 49.89933 | -97.23361 | 787 ft | 31 kts | 139° |
| 2026-05-07 06:09 | 49.89771 | -97.23137 | 781 ft | 31 kts | 138° |
| 2026-05-07 06:09 | 49.89617 | -97.22927 | 780 ft | 26 kts | 139° |
| 2026-05-07 06:10 | 49.89552 | -97.22787 | 782 ft | 8 kts | 85° |
| 2026-05-07 06:10 | 49.89574 | -97.22724 | 782 ft | 6 kts | 47° |
| 2026-05-07 06:10 | 49.89592 | -97.22691 | 782 ft | 3 kts | 49° |
| 2026-05-07 06:10 | 49.89595 | -97.22685 | 782 ft | 1 kts | 49° |
| 2026-05-07 06:11 | 49.89600 | -97.22676 | 782 ft | 1 kts | 49° |
| 2026-05-07 06:11 | 49.89608 | -97.22662 | 782 ft | 2 kts | 49° |
| 2026-05-07 06:11 | 49.89618 | -97.22644 | 783 ft | 2 kts | 49° |
| 2026-05-07 06:11 | 49.89628 | -97.22625 | 783 ft | 2 kts | 49° |
| 2026-05-07 06:12 | 49.89647 | -97.22591 | 783 ft | 11 kts | 49° |
| 2026-05-07 06:12 | 49.89699 | -97.22542 | 785 ft | 4 kts | 355° |
| 2026-05-07 06:12 | 49.89724 | -97.22568 | 785 ft | 6 kts | 316° |
| 2026-05-07 06:12 | 49.89750 | -97.22613 | 785 ft | 10 kts | 311° |
| 2026-05-07 06:13 | 49.89811 | -97.22725 | 783 ft | 17 kts | 311° |
| 2026-05-07 06:13 | 49.89893 | -97.22875 | 784 ft | 18 kts | 313° |
| 2026-05-07 06:13 | 49.89986 | -97.23008 | 785 ft | 18 kts | 317° |
| 2026-05-07 06:13 | 49.90073 | -97.23127 | 789 ft | 16 kts | 319° |
| 2026-05-07 06:14 | 49.90155 | -97.23237 | 789 ft | 16 kts | 319° |
| 2026-05-07 06:14 | 49.90232 | -97.23348 | 791 ft | 15 kts | 317° |
| 2026-05-07 06:14 | 49.90316 | -97.23449 | 790 ft | 16 kts | 340° |
| 2026-05-07 06:14 | 49.90426 | -97.23415 | 788 ft | 17 kts | 18° |
| 2026-05-07 06:15 | 49.90543 | -97.23356 | 787 ft | 18 kts | 18° |
| 2026-05-07 06:15 | 49.90659 | -97.23275 | 785 ft | 19 kts | 51° |
| 2026-05-07 06:15 | 49.90689 | -97.23088 | 786 ft | 18 kts | 78° |
| 2026-05-07 06:15 | 49.90714 | -97.22896 | 785 ft | 19 kts | 78° |
| 2026-05-07 06:16 | 49.90726 | -97.22747 | 786 ft | 12 kts | 101° |
| 2026-05-07 06:16 | 49.90676 | -97.22682 | 787 ft | 9 kts | 163° |
| 2026-05-07 06:16 | 49.90668 | -97.22678 | 787 ft | 0 kts | 163° |
| 2026-05-07 06:16 | 49.90665 | -97.22677 | 787 ft | 0 kts | 163° |